Time;durP1;ratioP1;P1;durP2;ratioP2;P2;SDS_P1;SDS_P2;PMS_P1;PMS_P2;Temp;Humidity;BMP_temperature;BMP_pressure;BME280_temperature;BME280_humidity;BME280_pressure;Samples;Min_cycle;Max_cycle;Signal;HPM_P1;HPM_P2
2022/09/20 00:00:43;;;;;;;5.73;1.57;;;-19.60;99.90;;;;;;5082718;28;20213;-70
2022/09/20 00:03:09;;;;;;;2.67;1.97;;;-17.50;99.90;;;;;;5083686;28;20183;-69
2022/09/20 00:05:37;;;;;;;7.03;2.03;;;-18.60;99.90;;;;;;5078625;28;20522;-72
2022/09/20 00:08:04;;;;;;;3.57;2.00;;;-15.90;99.90;;;;;;5081423;28;20260;-71
2022/09/20 00:10:37;;;;;;;6.83;2.73;;;-19.50;99.90;;;;;;5084072;28;20184;-69
2022/09/20 00:13:04;;;;;;;3.27;2.53;;;-22.60;99.90;;;;;;5083919;28;20179;-75
2022/09/20 00:15:30;;;;;;;4.83;2.90;;;-19.50;99.90;;;;;;5080747;28;20175;-80
2022/09/20 00:17:58;;;;;;;9.57;3.40;;;-16.10;99.90;;;;;;5078196;28;20167;-72
2022/09/20 00:20:24;;;;;;;3.70;1.70;;;-16.00;99.90;;;;;;5077663;28;20181;-76
2022/09/20 00:22:50;;;;;;;3.10;2.20;;;-15.90;99.90;;;;;;5084261;28;20182;-68
2022/09/20 00:25:17;;;;;;;1.60;1.50;;;-16.00;99.90;;;;;;5079463;28;20190;-69
2022/09/20 00:27:44;;;;;;;3.57;2.10;;;-16.50;99.90;;;;;;5080170;28;20563;-77
2022/09/20 00:30:11;;;;;;;5.83;2.20;;;-18.90;99.90;;;;;;5077946;28;20176;-70
2022/09/20 00:32:36;;;;;;;5.37;1.93;;;-20.00;99.90;;;;;;5080041;28;20244;-78
2022/09/20 00:35:09;;;;;;;4.80;2.13;;;-21.60;99.90;;;;;;5082381;28;20207;-75
2022/09/20 00:37:40;;;;;;;2.27;1.40;;;-21.30;99.90;;;;;;5077290;28;20175;-69
2022/09/20 00:40:11;;;;;;;2.63;2.30;;;-23.50;99.90;;;;;;5081064;28;20262;-70
2022/09/20 00:42:36;;;;;;;4.53;1.87;;;-21.30;99.90;;;;;;5076922;28;20180;-74
2022/09/20 00:45:39;;;;;;;3.17;2.60;;;-19.70;99.90;;;;;;5077238;28;20183;-70
2022/09/20 00:48:27;;;;;;;7.43;2.17;;;-17.60;99.90;;;;;;5055688;28;20199;-69
2022/09/20 00:51:10;;;;;;;3.23;2.00;;;-24.60;99.90;;;;;;5086349;28;20615;-70
2022/09/20 00:53:40;;;;;;;2.63;1.77;;;-21.80;99.90;;;;;;5087507;28;20210;-74
2022/09/20 00:56:12;;;;;;;4.20;1.63;;;-20.50;99.90;;;;;;5087889;28;20202;-75
2022/09/20 00:58:43;;;;;;;3.80;1.70;;;-21.20;99.90;;;;;;5083657;28;20171;-70
2022/09/20 01:01:09;;;;;;;9.80;2.57;;;-18.40;99.90;;;;;;5077319;28;20621;-71
2022/09/20 01:03:36;;;;;;;6.57;2.07;;;-19.90;99.90;;;;;;5074173;28;20244;-77
2022/09/20 01:06:06;;;;;;;7.30;2.07;;;-23.30;99.90;;;;;;5082844;28;20483;-71
2022/09/20 01:08:34;;;;;;;3.20;1.90;;;-23.10;99.90;;;;;;5082519;28;20175;-72
2022/09/20 01:11:00;;;;;;;4.00;2.10;;;-21.60;99.90;;;;;;5083164;28;20232;-70
2022/09/20 01:13:26;;;;;;;7.30;3.60;;;-27.10;99.90;;;;;;5082570;28;20598;-78
2022/09/20 01:15:53;;;;;;;6.73;1.80;;;-22.90;99.90;;;;;;5081768;28;20174;-71
2022/09/20 01:18:20;;;;;;;7.50;3.07;;;-20.10;99.90;;;;;;5076521;28;20179;-75
2022/09/20 01:20:47;;;;;;;9.03;3.30;;;-17.40;99.90;;;;;;5080972;28;20186;-68
2022/09/20 01:23:31;;;;;;;2.27;2.07;;;-18.90;99.90;;;;;;5075881;28;20195;-76
2022/09/20 01:26:15;;;;;;;5.37;2.77;;;-19.80;99.90;;;;;;5075921;28;20183;-76
2022/09/20 01:28:46;;;;;;;7.00;2.70;;;-22.40;99.90;;;;;;5078845;28;20210;-71
2022/09/20 01:31:25;;;;;;;3.13;2.27;;;-19.80;99.90;;;;;;5082419;28;20205;-74
2022/09/20 01:34:08;;;;;;;9.17;3.17;;;-18.30;99.90;;;;;;5075418;28;20362;-70
2022/09/20 01:36:49;;;;;;;3.17;2.87;;;-22.90;99.90;;;;;;5079521;28;20176;-69
2022/09/20 01:39:33;;;;;;;4.40;2.77;;;-22.40;99.90;;;;;;5077276;28;20171;-79
2022/09/20 01:42:04;;;;;;;3.73;2.77;;;-23.50;99.90;;;;;;5076594;28;20505;-70
2022/09/20 01:44:59;;;;;;;7.63;3.93;;;-23.60;99.90;;;;;;5078996;28;20187;-71
2022/09/20 01:47:31;;;;;;;8.80;3.37;;;-21.00;99.90;;;;;;5076445;28;20183;-71
2022/09/20 01:50:34;;;;;;;11.00;4.53;;;-22.20;99.90;;;;;;5079597;28;20644;-69
2022/09/20 01:53:19;;;;;;;8.40;3.53;;;-19.50;99.90;;;;;;5082790;28;20665;-82
2022/09/20 01:56:22;;;;;;;8.03;3.77;;;-21.30;99.90;;;;;;5080447;28;20179;-71
2022/09/20 01:59:12;;;;;;;6.87;3.33;;;-21.80;99.90;;;;;;5077281;28;20174;-80
2022/09/20 02:02:07;;;;;;;4.93;2.53;;;-18.90;99.90;;;;;;5081508;28;20188;-70
2022/09/20 02:04:58;;;;;;;4.40;2.53;;;-16.90;99.90;;;;;;5074401;28;20308;-68
2022/09/20 02:07:51;;;;;;;5.90;2.73;;;-20.40;99.90;;;;;;5075023;28;20186;-81
2022/09/20 02:10:30;;;;;;;7.03;3.20;;;-21.30;99.90;;;;;;5074941;28;20175;-73
2022/09/20 02:13:02;;;;;;;2.60;2.27;;;-18.40;99.90;;;;;;5074994;28;20186;-69
2022/09/20 02:16:04;;;;;;;5.83;2.80;;;-17.80;99.90;;;;;;5080897;28;20413;-73
2022/09/20 02:18:47;;;;;;;5.43;2.57;;;-23.00;99.90;;;;;;5080927;28;20171;-73
2022/09/20 02:21:22;;;;;;;4.87;2.80;;;-19.70;99.90;;;;;;5079920;28;20509;-75
2022/09/20 02:24:14;;;;;;;8.43;3.47;;;-19.70;99.90;;;;;;5075810;28;20662;-69
2022/09/20 02:26:58;;;;;;;6.40;3.50;;;-21.50;99.90;;;;;;5073241;28;20203;-82
2022/09/20 02:29:45;;;;;;;6.80;3.20;;;-24.20;99.90;;;;;;5075270;28;20179;-70
2022/09/20 02:32:35;;;;;;;4.43;2.97;;;-21.50;99.90;;;;;;5075589;28;20624;-80
2022/09/20 02:35:15;;;;;;;4.17;3.07;;;-22.50;99.90;;;;;;5074881;28;20724;-81
2022/09/20 02:38:17;;;;;;;4.60;3.17;;;-22.50;99.90;;;;;;5086180;28;20171;-82
2022/09/20 02:41:11;;;;;;;5.77;3.40;;;-24.00;99.90;;;;;;5085117;28;20175;-82
2022/09/20 02:43:47;;;;;;;6.83;3.50;;;-21.70;99.90;;;;;;5080924;28;20201;-69
2022/09/20 02:46:29;;;;;;;5.13;3.23;;;-21.30;99.90;;;;;;5077279;28;20232;-78
2022/09/20 02:49:02;;;;;;;4.77;3.23;;;-20.90;99.90;;;;;;5073780;28;20601;-80
2022/09/20 02:51:55;;;;;;;4.50;2.93;;;-25.70;99.90;;;;;;5073841;28;20217;-81
2022/09/20 02:54:41;;;;;;;9.17;4.00;;;-23.70;99.90;;;;;;5076855;28;20199;-70
2022/09/20 02:57:14;;;;;;;6.20;3.60;;;-23.30;99.90;;;;;;5077973;28;20182;-70
2022/09/20 02:59:43;;;;;;;5.17;2.83;;;-21.30;99.90;;;;;;5079153;28;20179;-72
2022/09/20 03:02:34;;;;;;;8.13;3.47;;;-23.50;99.90;;;;;;5086928;28;20178;-69
2022/09/20 03:04:59;;;;;;;7.63;3.40;;;-24.40;99.90;;;;;;5079301;28;20665;-69
2022/09/20 03:07:52;;;;;;;9.90;3.47;;;-25.90;99.90;;;;;;5075671;28;20186;-73
2022/09/20 03:10:17;;;;;;;3.70;3.40;;;-24.90;99.90;;;;;;5075133;28;20179;-73
2022/09/20 03:13:01;;;;;;;5.90;2.73;;;-21.90;99.90;;;;;;5080047;28;20191;-70
2022/09/20 03:15:42;;;;;;;5.20;2.40;;;-24.70;99.90;;;;;;5081905;28;20187;-71
2022/09/20 03:18:14;;;;;;;4.73;3.40;;;-25.50;99.90;;;;;;5080536;28;20608;-69
2022/09/20 03:21:07;;;;;;;8.97;3.80;;;-21.80;99.90;;;;;;5075491;28;20249;-78
2022/09/20 03:23:44;;;;;;;4.97;3.53;;;-20.10;99.90;;;;;;5085796;28;20202;-71
2022/09/20 03:26:31;;;;;;;8.60;4.30;;;-21.70;99.90;;;;;;5081927;28;20545;-70
2022/09/20 03:29:23;;;;;;;5.73;3.57;;;-20.10;99.90;;;;;;5079255;28;20474;-82
2022/09/20 03:31:48;;;;;;;11.03;3.40;;;-22.00;99.90;;;;;;5081410;28;20186;-73
2022/09/20 03:34:54;;;;;;;16.63;4.27;;;-26.10;99.90;;;;;;5078382;28;20537;-69
2022/09/20 03:37:52;;;;;;;4.70;3.10;;;-22.40;99.90;;;;;;5078652;28;20480;-80
2022/09/20 03:40:29;;;;;;;8.37;3.60;;;-24.50;99.90;;;;;;5082594;28;20178;-68
2022/09/20 03:43:05;;;;;;;10.23;3.93;;;-23.30;99.90;;;;;;5078324;28;20189;-70
2022/09/20 03:45:50;;;;;;;4.70;3.23;;;-26.70;99.90;;;;;;5085316;28;20594;-70
2022/09/20 03:48:28;;;;;;;5.30;3.33;;;-27.40;99.90;;;;;;5077254;28;20239;-75
2022/09/20 03:51:14;;;;;;;3.67;3.10;;;-27.10;99.90;;;;;;5084079;28;20183;-75
2022/09/20 03:54:03;;;;;;;7.20;3.93;;;-23.20;99.90;;;;;;5083049;28;20195;-77
2022/09/20 03:56:57;;;;;;;3.17;2.73;;;-24.60;99.90;;;;;;5078078;28;20178;-75
2022/09/20 03:59:53;;;;;;;4.53;3.07;;;-24.50;99.90;;;;;;5083583;28;20587;-73
2022/09/20 04:02:23;;;;;;;12.40;3.83;;;-26.20;99.90;;;;;;5089661;28;20466;-75
2022/09/20 04:04:52;;;;;;;5.00;4.23;;;-24.80;99.90;;;;;;5079850;28;20265;-76
2022/09/20 04:07:36;;;;;;;10.93;3.93;;;-26.10;99.90;;;;;;5082678;28;20187;-74
2022/09/20 04:10:27;;;;;;;6.27;3.60;;;-26.00;99.90;;;;;;5091331;28;20187;-69
2022/09/20 04:13:18;;;;;;;9.53;3.90;;;-24.60;99.90;;;;;;5077634;28;20183;-78
2022/09/20 04:16:09;;;;;;;3.77;3.40;;;-24.70;99.90;;;;;;5076509;28;20622;-70
2022/09/20 04:19:10;;;;;;;4.50;2.87;;;-22.80;99.90;;;;;;5078049;28;20257;-70
2022/09/20 04:21:55;;;;;;;4.77;3.07;;;-23.60;99.90;;;;;;5059330;28;20641;-69
2022/09/20 04:24:29;;;;;;;9.43;3.53;;;-25.30;99.90;;;;;;5077967;28;20229;-74
2022/09/20 04:27:03;;;;;;;6.93;4.33;;;-26.10;99.90;;;;;;5077567;28;20661;-68
2022/09/20 04:29:39;;;;;;;4.70;3.13;;;-24.90;99.90;;;;;;5088063;28;20292;-74
2022/09/20 04:32:26;;;;;;;5.27;3.23;;;-23.90;99.90;;;;;;5081077;28;20187;-73
2022/09/20 04:37:50;;;;;;;4.27;3.30;;;-23.60;99.90;;;;;;5076993;28;20210;-73
2022/09/20 04:40:47;;;;;;;9.20;3.87;;;-28.40;99.90;;;;;;5077178;28;20172;-70
2022/09/20 04:43:34;;;;;;;11.60;3.47;;;-24.90;99.90;;;;;;5084933;28;20225;-80
2022/09/20 04:46:27;;;;;;;6.70;3.53;;;-24.00;99.90;;;;;;5084491;28;20239;-74
2022/09/20 04:49:34;;;;;;;3.23;2.93;;;-32.70;99.90;;;;;;5082599;28;20201;-75
2022/09/20 04:52:27;;;;;;;7.40;3.50;;;-30.30;99.90;;;;;;5064055;28;20245;-72
2022/09/20 04:55:20;;;;;;;7.60;3.93;;;-30.20;99.90;;;;;;5076556;28;20211;-69
2022/09/20 04:58:07;;;;;;;12.57;4.33;;;-33.60;99.90;;;;;;5078576;28;20695;-84
2022/09/20 05:01:01;;;;;;;7.07;4.27;;;-36.60;99.90;;;;;;5076722;28;20198;-75
2022/09/20 05:03:42;;;;;;;11.83;4.20;;;-29.60;99.90;;;;;;5084184;28;20190;-75
2022/09/20 05:06:20;;;;;;;16.70;4.23;;;-28.30;99.90;;;;;;5082028;28;20201;-73
2022/09/20 05:09:04;;;;;;;8.27;4.63;;;-26.20;99.90;;;;;;5076540;28;20198;-69
2022/09/20 05:11:47;;;;;;;16.77;4.60;;;-27.00;99.90;;;;;;5075795;28;20187;-78
2022/09/20 05:14:50;;;;;;;9.20;4.33;;;-28.40;99.90;;;;;;5076660;28;20207;-79
2022/09/20 05:17:36;;;;;;;7.23;4.73;;;-28.20;99.90;;;;;;5081534;28;20269;-73
2022/09/20 05:20:41;;;;;;;7.27;3.73;;;-28.30;99.90;;;;;;5081220;28;20175;-70
2022/09/20 05:23:44;;;;;;;6.60;4.03;;;-26.30;99.90;;;;;;5076683;28;20262;-77
2022/09/20 05:26:37;;;;;;;9.93;3.97;;;-26.90;99.90;;;;;;5082430;28;20185;-80
2022/09/20 05:29:28;;;;;;;6.83;3.40;;;-19.70;99.90;;;;;;5075760;28;20213;-71
2022/09/20 05:32:17;;;;;;;8.40;4.30;;;-25.00;99.90;;;;;;5086103;28;20183;-71
2022/09/20 05:34:59;;;;;;;8.77;4.50;;;-30.10;99.90;;;;;;5082431;28;20215;-70
2022/09/20 05:37:35;;;;;;;7.63;4.23;;;-26.50;99.90;;;;;;5080081;28;20586;-68
2022/09/20 05:40:20;;;;;;;6.17;4.13;;;-24.80;99.90;;;;;;5081609;28;20179;-79
2022/09/20 05:42:59;;;;;;;7.33;4.80;;;-24.10;99.90;;;;;;5075595;28;20186;-71
2022/09/20 05:45:50;;;;;;;8.53;5.40;;;-24.70;99.90;;;;;;5079157;28;20179;-68
2022/09/20 05:48:42;;;;;;;12.07;4.87;;;-24.80;99.90;;;;;;5071503;28;20201;-69
2022/09/20 05:51:19;;;;;;;7.93;4.27;;;-28.10;99.90;;;;;;5055468;28;20253;-73
2022/09/20 05:53:47;;;;;;;9.73;4.97;;;-31.10;99.90;;;;;;5076295;28;20602;-74
2022/09/20 05:56:32;;;;;;;14.20;5.23;;;-25.40;99.90;;;;;;5080462;28;20228;-79
2022/09/20 05:59:28;;;;;;;7.13;4.50;;;-24.50;99.90;;;;;;5074846;28;20191;-69
2022/09/20 06:02:14;;;;;;;7.27;5.23;;;-28.50;99.90;;;;;;5074710;28;20183;-72
2022/09/20 06:04:55;;;;;;;12.30;5.00;;;-32.10;99.90;;;;;;5075178;28;20191;-70
2022/09/20 06:07:29;;;;;;;5.73;5.07;;;-27.70;99.90;;;;;;5075823;28;20187;-73
2022/09/20 06:10:24;;;;;;;7.90;5.47;;;-33.60;99.90;;;;;;5075386;28;20279;-69
2022/09/20 06:13:19;;;;;;;6.07;4.63;;;-29.90;99.90;;;;;;5075585;28;20269;-69
2022/09/20 06:16:05;;;;;;;8.50;5.47;;;-29.80;99.90;;;;;;5081662;28;20198;-70
2022/09/20 06:18:54;;;;;;;18.50;5.90;;;-33.20;99.90;;;;;;5075598;28;20197;-73
2022/09/20 06:21:45;;;;;;;8.20;6.13;;;-28.60;99.90;;;;;;5079193;28;20487;-69
2022/09/20 06:24:48;;;;;;;7.20;5.37;;;-27.70;99.90;;;;;;5080363;28;20296;-71
2022/09/20 06:27:32;;;;;;;6.00;4.43;;;-28.40;99.90;;;;;;5086082;28;20198;-67
2022/09/20 06:30:04;;;;;;;8.20;4.80;;;-26.50;99.90;;;;;;5074276;28;20213;-70
2022/09/20 06:32:30;;;;;;;11.80;6.10;;;-29.30;99.90;;;;;;5083957;28;20579;-69
2022/09/20 06:34:59;;;;;;;12.50;6.13;;;-29.40;99.90;;;;;;5084095;28;20194;-72
2022/09/20 06:43:34;;;;;;;11.50;6.40;;;-35.30;99.90;;;;;;5075190;28;20194;-70
2022/09/20 06:46:00;;;;;;;5.87;5.33;;;-37.70;99.90;;;;;;5080667;28;20202;-69
2022/09/20 06:48:28;;;;;;;5.97;5.10;;;-35.00;99.90;;;;;;5075149;28;20272;-69
2022/09/20 06:50:54;;;;;;;9.40;6.43;;;-33.90;99.90;;;;;;5077928;28;20232;-76
2022/09/20 06:53:31;;;;;;;10.30;5.50;;;-32.80;99.90;;;;;;5079213;28;20520;-70
2022/09/20 06:55:59;;;;;;;7.77;5.60;;;-40.00;99.90;;;;;;5074861;28;20174;-68
2022/09/20 06:58:25;;;;;;;7.87;5.53;;;-40.00;99.90;;;;;;5075178;28;20182;-68
2022/09/20 07:00:52;;;;;;;12.47;6.40;;;-40.00;99.90;;;;;;5077764;28;20183;-78
2022/09/20 07:03:18;;;;;;;8.97;5.97;;;-40.00;99.90;;;;;;5078790;28;20236;-71
2022/09/20 07:05:45;;;;;;;10.50;4.87;;;-40.00;99.90;;;;;;5083287;28;20476;-68
2022/09/20 07:08:11;;;;;;;11.93;6.27;;;-40.00;99.90;;;;;;5077559;28;20653;-66
2022/09/20 07:10:37;;;;;;;10.07;5.80;;;-40.00;99.90;;;;;;5079166;28;20193;-69
2022/09/20 07:13:04;;;;;;;9.57;6.00;;;-40.00;99.90;;;;;;5079036;28;20193;-70
2022/09/20 07:15:32;;;;;;;7.03;5.80;;;-40.00;99.90;;;;;;5084533;28;20205;-67
2022/09/20 07:17:59;;;;;;;11.30;6.00;;;-40.00;99.90;;;;;;5084178;28;20206;-67
2022/09/20 07:20:25;;;;;;;8.80;5.30;;;-40.00;99.90;;;;;;5079130;28;20179;-67
2022/09/20 07:22:51;;;;;;;8.37;5.37;;;-40.00;99.90;;;;;;5084418;28;20575;-78
2022/09/20 07:25:17;;;;;;;6.47;5.87;;;-40.00;99.90;;;;;;5084791;28;20183;-69
2022/09/20 07:27:45;;;;;;;12.00;7.30;;;-40.00;99.90;;;;;;5086803;28;20189;-72
2022/09/20 07:30:12;;;;;;;12.23;5.80;;;-40.00;99.90;;;;;;5078852;28;20194;-71
2022/09/20 07:32:39;;;;;;;6.47;5.10;;;-40.00;99.90;;;;;;5084881;28;20198;-75
2022/09/20 07:35:07;;;;;;;10.97;6.37;;;-40.00;99.90;;;;;;5078389;28;20210;-67
2022/09/20 07:37:33;;;;;;;7.17;5.50;;;-40.00;99.90;;;;;;5085164;28;20167;-68
2022/09/20 07:39:59;;;;;;;7.70;5.33;;;-36.70;99.90;;;;;;5078001;28;20197;-67
2022/09/20 07:42:25;;;;;;;9.60;6.53;;;-38.90;99.90;;;;;;5078416;28;20195;-67
2022/09/20 07:44:52;;;;;;;8.87;6.00;;;-38.20;99.90;;;;;;5083496;28;20175;-69
2022/09/20 07:47:17;;;;;;;9.37;6.37;;;-40.00;99.90;;;;;;5082320;28;20175;-68
2022/09/20 07:49:43;;;;;;;7.20;5.63;;;-40.00;99.90;;;;;;5084107;28;20224;-68
2022/09/20 07:52:10;;;;;;;13.97;5.10;;;-40.00;99.90;;;;;;5078002;28;20206;-67
2022/09/20 07:54:35;;;;;;;11.47;8.57;;;-40.00;99.90;;;;;;5090067;28;20667;-69
2022/09/20 07:57:02;;;;;;;8.87;5.50;;;-37.50;99.90;;;;;;5077746;28;20183;-68
2022/09/20 07:59:27;;;;;;;5.90;4.47;;;-40.00;99.90;;;;;;5076744;28;20556;-69
2022/09/20 08:01:53;;;;;;;9.70;5.53;;;-32.60;99.90;;;;;;5077223;28;20266;-69
2022/09/20 08:04:19;;;;;;;12.93;5.03;;;-37.30;99.90;;;;;;5078074;28;20277;-67
2022/09/20 08:06:45;;;;;;;6.53;4.47;;;-36.20;99.90;;;;;;5085493;28;20254;-69
2022/09/20 08:09:12;;;;;;;10.57;4.83;;;-33.90;99.90;;;;;;5083676;28;20186;-67
2022/09/20 08:11:39;;;;;;;11.67;5.43;;;-36.40;99.90;;;;;;5085182;28;20408;-69
2022/09/20 08:14:06;;;;;;;7.93;4.07;;;-37.90;99.90;;;;;;5081230;28;20226;-67
2022/09/20 08:16:38;;;;;;;10.73;4.83;;;-38.20;99.90;;;;;;5077656;28;20171;-67
2022/09/20 08:19:04;;;;;;;7.83;4.60;;;-32.80;99.90;;;;;;5077706;28;20181;-67
2022/09/20 08:21:32;;;;;;;11.97;4.80;;;-27.60;99.90;;;;;;5083649;28;20258;-66
2022/09/20 08:23:58;;;;;;;10.73;4.80;;;-28.40;99.90;;;;;;5083018;28;20183;-67
2022/09/20 08:26:26;;;;;;;10.83;5.50;;;-28.50;99.90;;;;;;5083148;28;20207;-67
2022/09/20 08:28:54;;;;;;;6.00;3.93;;;-25.40;99.90;;;;;;5087690;28;20265;-69
2022/09/20 08:31:22;;;;;;;9.23;4.97;;;-36.70;99.90;;;;;;5081896;28;20186;-68
2022/09/20 08:33:51;;;;;;;7.33;4.73;;;-34.70;99.90;;;;;;5077222;28;20629;-67
2022/09/20 08:36:19;;;;;;;9.13;4.53;;;-31.30;99.90;;;;;;5077507;28;20182;-70
2022/09/20 08:38:45;;;;;;;7.63;4.60;;;-28.90;99.90;;;;;;5081781;28;20655;-71
2022/09/20 08:41:27;;;;;;;13.33;4.93;;;-32.90;99.90;;;;;;5083674;28;20264;-70
2022/09/20 08:43:52;;;;;;;6.90;4.53;;;-33.00;99.90;;;;;;5078294;28;20199;-68
2022/09/20 08:46:23;;;;;;;7.93;5.30;;;-28.10;99.90;;;;;;5080626;28;20245;-67
2022/09/20 08:48:51;;;;;;;8.77;4.93;;;-26.80;99.90;;;;;;5076964;28;20194;-68
2022/09/20 08:51:18;;;;;;;9.77;4.77;;;-34.70;99.90;;;;;;5076647;28;20209;-71
2022/09/20 08:53:53;;;;;;;7.87;4.20;;;-28.40;99.90;;;;;;5081734;28;20235;-69
2022/09/20 08:56:21;;;;;;;6.03;4.70;;;-34.10;99.90;;;;;;5083531;28;20182;-79
2022/09/20 08:58:47;;;;;;;15.10;5.60;;;-40.00;99.90;;;;;;5087030;28;20592;-68
2022/09/20 09:01:21;;;;;;;8.40;5.20;;;-32.70;99.90;;;;;;5077273;28;20183;-67
2022/09/20 09:03:50;;;;;;;21.97;6.20;;;-36.10;99.90;;;;;;5076585;28;20259;-70
2022/09/20 09:06:20;;;;;;;4.47;3.67;;;-37.70;99.90;;;;;;5082706;28;20194;-70
2022/09/20 09:08:50;;;;;;;9.83;4.57;;;-31.30;99.90;;;;;;5082928;28;20241;-67
2022/09/20 09:11:17;;;;;;;6.90;4.57;;;-30.50;99.90;;;;;;5076644;28;20207;-78
2022/09/20 09:14:03;;;;;;;7.83;4.30;;;-27.00;99.90;;;;;;5082902;28;20205;-67
2022/09/20 09:16:33;;;;;;;8.70;4.47;;;-37.90;99.90;;;;;;5085641;28;20183;-68
2022/09/20 09:19:29;;;;;;;6.43;3.43;;;-33.40;99.90;;;;;;5081582;28;20190;-68
2022/09/20 09:22:02;;;;;;;7.53;3.83;;;-36.50;99.90;;;;;;5075583;28;20175;-73
2022/09/20 09:24:32;;;;;;;11.90;4.53;;;-33.80;99.90;;;;;;5076559;28;20179;-77
2022/09/20 09:27:13;;;;;;;6.30;2.87;;;-37.10;99.90;;;;;;5081210;28;20179;-68
2022/09/20 09:29:50;;;;;;;5.80;3.57;;;-35.50;99.90;;;;;;5080164;28;20258;-68
2022/09/20 09:32:28;;;;;;;10.47;4.37;;;-29.20;99.90;;;;;;5080826;28;20187;-67
2022/09/20 09:34:56;;;;;;;6.27;3.43;;;-38.80;99.90;;;;;;5080885;28;20207;-69
2022/09/20 09:37:27;;;;;;;7.70;4.37;;;-32.80;99.90;;;;;;5081570;28;20197;-73
2022/09/20 09:40:17;;;;;;;11.80;3.80;;;-25.60;99.90;;;;;;5076135;28;20171;-69
2022/09/20 09:42:55;;;;;;;6.07;3.43;;;-27.60;99.90;;;;;;5075808;28;20170;-71
2022/09/20 09:45:29;;;;;;;8.47;4.17;;;-37.10;99.90;;;;;;5075998;28;20229;-67
2022/09/20 09:47:56;;;;;;;7.93;4.23;;;-35.10;99.90;;;;;;5076009;28;20214;-74
2022/09/20 09:50:32;;;;;;;8.10;3.53;;;-37.40;99.90;;;;;;5075388;28;20179;-70
2022/09/20 09:53:01;;;;;;;10.07;4.83;;;-31.00;99.90;;;;;;5078162;28;20210;-70
2022/09/20 09:55:57;;;;;;;11.13;3.50;;;-40.00;99.90;;;;;;5080432;28;20202;-71
2022/09/20 09:58:38;;;;;;;4.90;3.07;;;-40.00;99.90;;;;;;5064503;28;20481;-71
2022/09/20 10:01:11;;;;;;;7.93;2.83;;;-29.50;99.90;;;;;;5082576;28;20265;-78
2022/09/20 10:03:50;;;;;;;17.20;3.83;;;-29.90;99.90;;;;;;5080969;28;20183;-70
2022/09/20 10:06:54;;;;;;;10.77;2.30;;;-40.00;99.90;;;;;;5075681;28;20233;-73
2022/09/20 10:09:44;;;;;;;2.37;2.03;;;-34.70;99.90;;;;;;5068490;28;20298;-68
2022/09/20 10:12:50;;;;;;;4.53;3.27;;;-38.40;98.70;;;;;;5082836;28;20202;-68
2022/09/20 10:15:34;;;;;;;4.17;2.20;;;-40.00;99.30;;;;;;5071608;28;20231;-67
2022/09/20 10:18:12;;;;;;;6.23;2.53;;;-39.60;98.50;;;;;;5081757;28;20190;-68
2022/09/20 10:20:49;;;;;;;6.67;2.07;;;-33.70;99.30;;;;;;5074241;28;20179;-69
2022/09/20 10:23:48;;;;;;;2.20;1.97;;;-34.30;98.40;;;;;;5074393;28;20187;-68
2022/09/20 10:26:52;;;;;;;3.73;2.23;;;-31.30;99.90;;;;;;5081508;28;20253;-68
2022/09/20 10:29:29;;;;;;;9.67;2.90;;;-31.80;99.90;;;;;;5079012;28;20192;-70
2022/09/20 10:31:56;;;;;;;6.07;1.87;;;-33.50;99.90;;;;;;5074563;28;20614;-68
2022/09/20 10:34:25;;;;;;;4.03;1.30;;;-21.40;99.90;;;;;;5080064;28;20183;-73
2022/09/20 10:36:56;;;;;;;8.57;1.97;;;-25.20;99.90;;;;;;5075084;28;20175;-66
2022/09/20 10:39:37;;;;;;;2.70;1.40;;;-22.60;99.90;;;;;;5075083;28;20178;-70
2022/09/20 10:45:18;;;;;;;2.77;1.10;;;-22.50;99.90;;;;;;5078536;28;20248;-69
2022/09/20 10:48:07;;;;;;;6.13;2.00;;;-19.70;99.90;;;;;;5084483;28;20182;-74
2022/09/20 10:51:03;;;;;;;6.53;1.83;;;-22.30;99.90;;;;;;5074927;28;20179;-70
2022/09/20 10:53:46;;;;;;;5.57;1.90;;;-28.20;99.90;;;;;;5078150;28;20328;-67
2022/09/20 10:56:32;;;;;;;6.83;1.60;;;-22.10;99.90;;;;;;5079864;28;20262;-67
2022/09/20 10:59:22;;;;;;;3.70;1.70;;;-24.00;99.90;;;;;;5079784;28;20197;-67
2022/09/20 11:01:53;;;;;;;2.60;1.70;;;-33.70;99.40;;;;;;5080111;28;20254;-73
2022/09/20 11:04:40;;;;;;;6.30;1.70;;;-29.40;99.90;;;;;;5080891;28;20187;-69
2022/09/20 11:07:36;;;;;;;6.10;1.83;;;-29.90;99.10;;;;;;5080293;28;20182;-73
2022/09/20 11:10:41;;;;;;;5.40;2.00;;;-27.20;99.90;;;;;;5079560;28;20167;-69
2022/09/20 11:13:25;;;;;;;4.17;1.50;;;-28.00;99.90;;;;;;5064527;28;20190;-72
2022/09/20 11:15:59;;;;;;;5.20;1.90;;;-25.20;99.90;;;;;;5077930;28;20618;-71
2022/09/20 11:18:37;;;;;;;8.83;2.10;;;-19.00;99.90;;;;;;5073784;28;20172;-71
2022/09/20 11:21:21;;;;;;;8.83;2.40;;;-18.50;99.90;;;;;;5085696;28;20179;-68
2022/09/20 11:24:28;;;;;;;6.43;2.90;;;-21.00;99.90;;;;;;5076676;28;20213;-74
2022/09/20 11:27:04;;;;;;;17.53;7.27;;;15.00;99.90;;;;;;5078452;28;20195;-68
2022/09/20 11:29:41;;;;;;;5.63;2.27;;;15.40;99.90;;;;;;5074521;28;20179;-80
2022/09/20 11:32:58;;;;;;;5.30;2.40;;;15.30;99.90;;;;;;5073034;28;20232;-76
2022/09/20 11:35:39;;;;;;;3.10;1.60;;;15.30;99.90;;;;;;5061205;28;20223;-67
2022/09/20 11:38:23;;;;;;;3.57;1.90;;;15.20;99.90;;;;;;5073508;28;20489;-67
2022/09/20 11:41:14;;;;;;;3.50;1.37;;;15.30;99.90;;;;;;5074554;28;20220;-71
2022/09/20 11:43:43;;;;;;;7.37;2.53;;;15.50;99.90;;;;;;5080020;28;20199;-72
2022/09/20 11:46:17;;;;;;;7.93;2.67;;;15.60;99.90;;;;;;5085774;28;20174;-69
2022/09/20 11:49:08;;;;;;;10.20;3.47;;;15.70;99.90;;;;;;5081764;28;20256;-68
2022/09/20 11:51:50;;;;;;;8.00;3.27;;;15.80;99.90;;;;;;5083027;28;20191;-66
2022/09/20 11:54:35;;;;;;;7.83;3.37;;;15.70;99.90;;;;;;5082941;28;20199;-68
2022/09/20 11:57:01;;;;;;;4.53;2.43;;;15.30;99.90;;;;;;5078039;28;20182;-68
2022/09/20 11:59:53;;;;;;;7.97;3.23;;;-32.30;99.90;;;;;;5084590;28;20194;-71
2022/09/20 12:02:33;;;;;;;4.00;2.17;;;-29.90;99.90;;;;;;5082385;28;20613;-68
2022/09/20 12:05:00;;;;;;;10.30;3.53;;;-30.40;99.90;;;;;;5082736;28;20179;-68
2022/09/20 12:07:30;;;;;;;5.07;2.00;;;-38.50;99.90;;;;;;5088324;28;20518;-69
2022/09/20 12:10:02;;;;;;;4.30;1.93;;;-31.90;97.40;;;;;;5082789;28;20225;-68
2022/09/20 12:12:44;;;;;;;7.20;1.60;;;-35.70;94.80;;;;;;5077748;28;20198;-81
2022/09/20 12:15:24;;;;;;;6.73;2.10;;;-24.90;96.60;;;;;;5082239;28;20204;-67
2022/09/20 12:17:50;;;;;;;7.53;2.47;;;-24.00;98.30;;;;;;5077663;28;20183;-69
2022/09/20 12:20:34;;;;;;;7.63;2.90;;;-27.10;97.40;;;;;;5084643;28;20180;-67
2022/09/20 12:23:37;;;;;;;5.57;1.37;;;-26.40;97.00;;;;;;5079937;28;20210;-68
2022/09/20 12:26:03;;;;;;;6.47;1.70;;;17.90;99.90;;;;;;5077661;28;20193;-74
2022/09/20 12:28:42;;;;;;;4.33;2.13;;;17.50;99.90;;;;;;5076940;28;20586;-71
2022/09/20 12:31:17;;;;;;;7.30;1.60;;;17.40;99.90;;;;;;5081381;28;20497;-67
2022/09/20 12:34:12;;;;;;;7.80;2.40;;;17.30;99.90;;;;;;5077401;28;20194;-71
2022/09/20 12:36:49;;;;;;;6.97;2.13;;;17.20;99.90;;;;;;5084347;28;20183;-73
2022/09/20 12:39:17;;;;;;;3.73;1.77;;;17.30;99.90;;;;;;5090890;28;20186;-73
2022/09/20 12:42:25;;;;;;;2.43;1.27;;;17.50;99.90;;;;;;5076432;28;20477;-69
2022/09/20 12:44:56;;;;;;;4.07;1.97;;;17.90;99.90;;;;;;5081458;28;20248;-69
2022/09/20 12:47:26;;;;;;;5.63;2.20;;;18.00;99.90;;;;;;5082966;28;20257;-72
2022/09/20 12:55:31;;;;;;;3.03;1.40;;;17.80;99.90;;;;;;5082403;28;20217;-78
2022/09/20 12:58:05;;;;;;;5.70;1.77;;;17.80;99.90;;;;;;5085149;28;20277;-69
2022/09/20 13:00:35;;;;;;;2.67;1.20;;;17.50;99.90;;;;;;5085628;28;20197;-69
2022/09/20 13:03:28;;;;;;;2.50;1.33;;;16.80;99.90;;;;;;5076778;28;20179;-70
2022/09/20 13:06:05;;;;;;;4.20;1.00;;;15.90;99.90;;;;;;5083820;28;20188;-69
2022/09/20 13:09:06;;;;;;;3.93;1.93;;;16.00;99.90;;;;;;5080713;28;20206;-69
2022/09/20 13:11:47;;;;;;;3.37;1.40;;;16.10;99.90;;;;;;5075498;28;20508;-69
2022/09/20 13:14:32;;;;;;;3.70;1.53;;;16.30;99.90;;;;;;5079215;28;20210;-77
2022/09/20 13:17:05;;;;;;;6.60;2.83;;;16.40;99.90;;;;;;5081153;28;20210;-68
2022/09/20 13:19:58;;;;;;;2.97;2.07;;;16.40;99.90;;;;;;5076308;28;20175;-70
2022/09/20 13:22:40;;;;;;;2.80;1.70;;;16.40;99.90;;;;;;5079515;28;20591;-70
2022/09/20 13:25:13;;;;;;;6.10;1.50;;;16.30;99.90;;;;;;5080970;28;20213;-69
2022/09/20 13:28:12;;;;;;;10.03;2.67;;;16.20;99.90;;;;;;5076018;28;20218;-76
2022/09/20 13:30:40;;;;;;;2.57;1.37;;;16.10;99.90;;;;;;5076055;28;20198;-70
2022/09/20 13:33:21;;;;;;;10.07;3.67;;;16.10;99.90;;;;;;5078928;28;20199;-69
2022/09/20 13:35:51;;;;;;;3.60;1.83;;;16.10;99.90;;;;;;5085089;28;20184;-68
2022/09/20 13:38:23;;;;;;;5.57;1.87;;;15.90;99.90;;;;;;5081596;28;20179;-68
2022/09/20 13:40:51;;;;;;;2.33;1.13;;;15.90;99.90;;;;;;5079904;28;20181;-69
2022/09/20 13:43:27;;;;;;;9.67;2.33;;;15.90;99.90;;;;;;5079297;28;20175;-70
2022/09/20 13:45:59;;;;;;;4.07;2.00;;;16.00;99.90;;;;;;5076284;28;20179;-69
2022/09/20 13:48:27;;;;;;;3.97;1.43;;;16.00;99.90;;;;;;5081158;28;20250;-69
2022/09/20 13:50:53;;;;;;;2.53;1.73;;;16.00;99.90;;;;;;5076883;28;20209;-69